AREA preflight bulletin
Updated "live" 19 Jan 2018, 09:01

back to the map




METAR og TAF


THULE (MIL)
  AKTUEL BGTL 190756Z AUTO 10005KT 9999 OVC008 M23/M26 A3011 RMK AO2 SLP188 T12311258 TSNO ?=
  TAF 24 timer BGTL 190200Z 1902/2008 13009KT 9999 FEW180 QNH2986INS WND 100V170 TXM15/1915Z TNM25/1906Z LAST NO AMDS AFT 1902 NEXT 1910=

QAANAAQ
  AKTUEL BGQQ 190850Z AUTO 10004KT 9999NDV -SHSN ///012/// M15/M17 Q1021 RMK /// =
  TAF 9 timer BGQQ 181915Z 1819/1820 CNL=

UPERNAVIK
  AKTUEL BGUK 190850Z AUTO 02006KT 2700NDV -SHSN BKN007/// M17/M19 Q1015=
  TAF 9 timer BGUK 182149Z 1822/1824 CNL=

ILULISSAT
  SPECI(AL) BGJN 190901Z VRB02KT 9999 FEW210 M11/M19 Q1010=
  AKTUEL BGJN 190850Z AUTO VRB02KT 9999NDV NCD M11/M19 Q1010=
  TAF 9 timer BGJN 182247Z 1822/1901 CNL=

KANGERLUSSUAQ
  AKTUEL BGSF 190850Z AUTO 05007KT 9999NDV NCD M30/M34 Q1010=
  TAF 24 timer BGSF 190457Z 1906/2012 06010KT 9999 FEW200=


SIGMETS:

Ingen SIGMET fundet:

NOTAM/SNOWTAM for operationel use has to be confirmed with the
nearest AIS Briefing Office prior to a flight.

ICAO
BGTL (THULE (MIL))

FIR
BGGL

Notam_id:
BGA0006/18

valid from:
1801042114

E) BASE OPS FREQ 131.1 MHZ UNAVAILABLE

valid to:
1802051200




ICAO
BGTL (THULE (MIL))

FIR
BGGL

Notam_id:
BGA0495/17

valid from:
1711031502

E) PAPI RWY 08T OUT OF SERVICE.

valid to:
1801262000


Replacing:
BGA0475/17

ICAO
BGQQ (QAANAAQ)

FIR
BGGL

Notam_id:
BGB0775/17

valid from:
1710101723

E) SEA RESCUE SERVICE NOT AVAIABLE.

valid to:
1807161200




ICAO
BGUK (UPERNAVIK)

FIR
BGGL

Notam_id:
BGB0915/17

valid from:
1802010000

E) TRIGGER NOTAM - PERM AIP AIRAC AMDT 01/18 WEF 01 FEB 2018. PWS ADDED ON ADC.

valid to:
1802142359




ICAO
BGUK (UPERNAVIK)

FIR
BGGL

Notam_id:
BGB0870/17

valid from:
1711251409

E) SEA RESCUE SERVICE NOT AVBL.

valid to:
1805311400




ICAO
BGUK (UPERNAVIK)

FIR
BGGL

Notam_id:
BGB0959/17

valid from:
1712291239

E) SNOWREMOVAL DOWNGRADED, DUE TO LACK OF VEHICLE.

valid to:
1801311500


Replacing:
BGB0722/17

ICAO
BGUK (UPERNAVIK)

FIR
BGGL

Notam_id:
BGB0016/18

valid from:
1801161609

E) OBST LIGHT AT ANEMOMETER RWY23 OUT OF SERVICE

valid to:
1801311500


Replacing:
BGB0005/18

ICAO
BGGL (SONDRESTROM FIR)

FIR
BGGL

Notam_id:
BGA0014/18

valid from:
1803010000

E) TRIGGER NOTAM - PERM AIP AIRAC AMDT 02/18 WEF 01 MAR 2018. SONDRESTROM FIR RENAMED NUUK FIR

valid to:
1803142359




ICAO
BGGL (SONDRESTROM FIR)

FIR
BGGL

Notam_id:
BGA0571/17

valid from:
1802010000

E) TRIGGER NOTAM - PERM AIP AIRAC AMDT 01/18 WEF 01 FEB 2018. NEW SIGNIFICANT POINT GIGOM ADDED. REF GEN 3.5: CHANGES IN CHAPTER 3 (METEOROLOGICAL OBSERVATIONS AND REPORTS) AT BGUK.

valid to:
1802142359




ICAO
BGGL (SONDRESTROM FIR)

FIR
BGGL

Notam_id:
BGA0002/18

valid from:
1801010559

E) CHECKLIST YEAR=2017 0269 0495 0539 0548 0571 0593 0594 0595 YEAR=2018 0001 LATEST PUBLICATIONS AIP AIRAC AMDT IFR 001/2018 EFFECTIVE DATE 01 FEB 18 AIP AMDT IFR 012/2017 EFFECTIVE DATE 21 DEC 17 AIP SUP IFR 004/2017 EFFECTIVE DATE 10 OCT 17 AIC IFR A002/2017 EFFECTIVE DATE 31 AUG 17

valid to:
1802010559EST


Replacing:
BGA0554/17

ICAO
BGGL (SONDRESTROM FIR)

FIR
BGGL

Notam_id:
BGB0001/18

valid from:
1801010559

E) CHECKLIST YEAR=2017 0740 0775 0806 0870 0891 0901 0902 0913 0914 0915 0918 0920 0921 0922 0923 0924 0930 0944 0945 0946 0959 0960 0965 YEAR=2018 NIL LATEST PUBLICATIONS AIP AIRAC AMDT IFR 001/2018 EFFECTIVE DATE 01 FEB 18 AIP AMDT IFR 012/2017 EFFECTIVE DATE 21 DEC 17 AIP SUP IFR 004/2017 EFFECTIVE DATE 10 OCT 17 AIC IFR A002/2017 EFFECTIVE DATE 31 AUG 17

valid to:
1802010559EST


Replacing:
BGB0884/17

ICAO
BGGL (SONDRESTROM FIR)

FIR
BGGL

Notam_id:
BGC0001/18

valid from:
1801010559

E) CHECKLIST YEAR=2017 0055 0056 0061 0062 0063 0064 0065 0066 0067 0068 0069 0070 0071 0072 0073 0074 0075 0076 0077 0078 0082 0084 YEAR=2018 NIL LATEST PUBLICATIONS AIP AIRAC AMDT IFR 001/2018 EFFECTIVE DATE 01 FEB 18 AIP AMDT IFR 012/2017 EFFECTIVE DATE 21 DEC 17 AIP SUP IFR 004/2017 EFFECTIVE DATE 10 OCT 17 AIC IFR A002/2017 EFFECTIVE DATE 31 AUG 17

valid to:
1802010559EST


Replacing:
BGC0059/17

ICAO
BGJN (ILULISSAT)

FIR
BGGL

Notam_id:
BGB0891/17

valid from:
1712041200

E) EVERY SECOND APCH LIGHT RWY 07/25 OUT OF SERVICE

valid to:
1801312359




ICAO
BGSF (KANGERLUSSUAQ)

FIR
BGGL

Notam_id:
BGA0016/18

valid from:
1801121113

E) PAPI LIGHTS ARE SET ON 10 PERCENT INTENSITY. 20 MINUTES PRIOR NOTICE REQUIRED TO CHANGE SETTING.

valid to:
1803112359




ICAO
BGSF (KANGERLUSSUAQ)

FIR
BGGL

Notam_id:
BGA0017/18

valid from:
1801121115

E) APCH LIGHTS ARE SET ON 10 PERCENT INTENSITY. 20 MINUTES PRIOR NOTICE REQUIRED TO CHANGE SETTING.

valid to:
1803112359




ICAO
BGSF (KANGERLUSSUAQ)

FIR
BGGL

Notam_id:
BGA0018/18

valid from:
1801121116

E) RWY EDGE LIGHTS ARE SET ON 10 PERCENT INTENSITY. 20 MINUTES PRIOR NOTICE REQUIRED TO CHANGE SETTING.

valid to:
1803112359




ICAO
BGSF (KANGERLUSSUAQ)

FIR
BGGL

Notam_id:
BGA0015/18

valid from:
1803010000

E) TRIGGER NOTAM - PERM AIP AIRAC AMDT 02/18 WEF 01 MAR 2018. CHANGES AS A CONSEQUENCE OF RENAMING SONDRESTROM FIR TO NUUK FIR. NEW REMARK CONCERNING TWY D

valid to:
1803142359




ICAO
BGSF (KANGERLUSSUAQ)

FIR
BGGL

Notam_id:
BGA0539/17

valid from:
1711211100

E) TWY D CLSD BTW SUNSET AND SUNRISE. IN SPECIAL CASES MARSHALLING CAN BE REQ.

valid to:
PERM





Copyright Naviair   2003-2016